Roatan, Honduras
Current Conditions -  °F | °C
As of 8:00 PM on Thursday 30 Oct 2014 (Local Time) from MHRO Reporting Station
Broken Clouds Broken Clouds  
Wind Chill: 79°   Ceiling: 20000
Heat Index: 82°   Visibility: 6mi
Dew Point: 73°   Wind: 0mph
Humidity: 83%   Direction: NA
Pressure: 29.88"   Gusts: NA
Location:  16.33°N, 86.52°W
Report Text: MHRO 310200Z 00000KT 9999 FEW020 BKN200 26/23 Q1012 A2989NOSIG
Loading
Personal Weather Stations






























Interactive Weather Map New forecast layout! Learn more

10-Day Weather Forecast

Advertisements
Track Severe Weather on mobile